Time;durP1;ratioP1;P1;durP2;ratioP2;P2;SDS_P1;SDS_P2;PMS_P1;PMS_P2;Temp;Humidity;BMP_temperature;BMP_pressure;BME280_temperature;BME280_humidity;BME280_pressure;Samples;Min_cycle;Max_cycle;Signal;HPM_P1;HPM_P2
2023/05/22 00:01:38;0.00;0.00;0.62;0.00;0.00;0.62;9.47;8.57;;;28.50;27.70;;;;;;2260800;61;20411;-60
2023/05/22 00:04:23;0.00;0.00;0.62;0.00;0.00;0.62;8.97;8.23;;;28.50;27.70;;;;;;2259456;61;21015;-61
2023/05/22 00:07:09;0.00;0.00;0.62;0.00;0.00;0.62;9.53;8.73;;;28.50;27.70;;;;;;2260460;61;20415;-60
2023/05/22 00:09:54;0.00;0.00;0.62;0.00;0.00;0.62;9.30;8.57;;;28.50;27.70;;;;;;2260121;61;20368;-61
2023/05/22 00:12:38;0.00;0.00;0.62;0.00;0.00;0.62;9.57;8.73;;;28.50;27.70;;;;;;2259582;61;20438;-58
2023/05/22 00:15:23;0.00;0.00;0.62;0.00;0.00;0.62;8.87;8.17;;;28.50;27.70;;;;;;2260575;61;20372;-61
2023/05/22 00:18:08;0.00;0.00;0.62;0.00;0.00;0.62;9.47;8.60;;;28.50;27.70;;;;;;2260298;61;20891;-62
2023/05/22 00:20:53;0.00;0.00;0.62;0.00;0.00;0.62;9.40;8.40;;;28.50;27.80;;;;;;2259577;61;20384;-64
2023/05/22 00:23:40;0.00;0.00;0.62;0.00;0.00;0.62;9.33;8.53;;;28.40;27.70;;;;;;2260601;61;20408;-63
2023/05/22 00:26:25;0.00;0.00;0.62;0.00;0.00;0.62;9.10;8.17;;;28.40;27.80;;;;;;2260278;61;20423;-59
2023/05/22 00:29:10;0.00;0.00;0.62;0.00;0.00;0.62;8.40;7.70;;;28.40;27.80;;;;;;2257266;61;20915;-61
2023/05/22 00:31:54;0.00;0.00;0.62;0.00;0.00;0.62;9.23;8.33;;;28.40;27.80;;;;;;2260351;61;20992;-62
2023/05/22 00:34:39;0.00;0.00;0.62;0.00;0.00;0.62;8.43;7.73;;;28.40;27.80;;;;;;2256292;61;20476;-62
2023/05/22 00:37:24;0.00;0.00;0.62;0.00;0.00;0.62;9.33;8.53;;;28.40;27.80;;;;;;2260897;61;20411;-59
2023/05/22 00:40:14;0.00;0.00;0.62;0.00;0.00;0.62;8.50;7.70;;;28.40;27.80;;;;;;2259832;61;20356;-62
2023/05/22 00:42:59;0.00;0.00;0.62;0.00;0.00;0.62;7.47;6.80;;;28.40;27.80;;;;;;2256606;61;20432;-62
2023/05/22 00:45:46;0.00;0.00;0.62;0.00;0.00;0.62;8.23;7.57;;;28.40;27.90;;;;;;2257471;61;20372;-62
2023/05/22 00:48:31;0.00;0.00;0.62;0.00;0.00;0.62;8.53;7.70;;;28.40;27.90;;;;;;2260226;61;20677;-60
2023/05/22 00:51:15;0.00;0.00;0.62;0.00;0.00;0.62;7.63;7.00;;;28.40;27.90;;;;;;2260617;61;20360;-61
2023/05/22 00:54:01;0.00;0.00;0.62;0.00;0.00;0.62;8.47;7.77;;;28.40;27.90;;;;;;2256766;61;20392;-61
2023/05/22 00:56:48;0.00;0.00;0.62;0.00;0.00;0.62;8.60;7.90;;;28.30;27.90;;;;;;2259568;61;20361;-60
2023/05/22 00:59:35;0.00;0.00;0.62;0.00;0.00;0.62;8.93;8.13;;;28.30;27.90;;;;;;2260437;61;20370;-60
2023/05/22 01:02:19;0.00;0.00;0.62;0.00;0.00;0.62;8.77;8.00;;;28.30;27.90;;;;;;2260299;61;20360;-59
2023/05/22 01:05:06;0.00;0.00;0.62;0.00;0.00;0.62;8.57;7.87;;;28.30;28.00;;;;;;2256573;61;20380;-61
2023/05/22 01:07:52;0.00;0.00;0.62;0.00;0.00;0.62;8.50;7.83;;;28.30;27.90;;;;;;2257632;61;20365;-60
2023/05/22 01:10:38;0.00;0.00;0.62;0.00;0.00;0.62;8.70;7.90;;;28.30;27.90;;;;;;2256186;61;20443;-61
2023/05/22 01:13:33;0.00;0.00;0.62;0.00;0.00;0.62;8.43;7.63;;;28.30;27.90;;;;;;2260397;61;20423;-61
2023/05/22 01:16:29;0.00;0.00;0.62;0.00;0.00;0.62;9.37;8.33;;;28.30;27.90;;;;;;2257037;61;20420;-60
2023/05/22 01:19:46;0.00;0.00;0.62;0.00;0.00;0.62;8.13;7.50;;;28.30;27.90;;;;;;2259182;61;20361;-59
2023/05/22 01:23:15;0.00;0.00;0.62;0.00;0.00;0.62;8.10;7.47;;;28.30;27.90;;;;;;2257350;61;20457;-60
2023/05/22 01:26:17;0.00;0.00;0.62;0.00;0.00;0.62;8.10;7.30;;;28.30;27.90;;;;;;2259589;61;20373;-61
2023/05/22 01:29:20;0.00;0.00;0.62;0.00;0.00;0.62;8.43;7.53;;;28.30;27.90;;;;;;2260288;61;20369;-58
2023/05/22 01:32:09;0.00;0.00;0.62;0.00;0.00;0.62;7.90;7.30;;;28.30;27.90;;;;;;2260080;61;20361;-59
2023/05/22 01:35:01;0.00;0.00;0.62;0.00;0.00;0.62;8.50;7.80;;;28.30;27.90;;;;;;2259419;61;20381;-61
2023/05/22 01:37:47;0.00;0.00;0.62;0.00;0.00;0.62;9.07;8.23;;;28.30;27.90;;;;;;2260320;61;20778;-61
2023/05/22 01:40:34;0.00;0.00;0.62;0.00;0.00;0.62;8.30;7.60;;;28.20;27.90;;;;;;2256214;61;20365;-61
2023/05/22 01:43:19;0.00;0.00;0.62;0.00;0.00;0.62;8.73;7.93;;;28.20;27.90;;;;;;2260410;61;20451;-62
2023/05/22 01:46:05;0.00;0.00;0.62;0.00;0.00;0.62;7.27;6.67;;;28.20;27.80;;;;;;2256672;61;20364;-63
2023/05/22 01:48:51;0.00;0.00;0.62;0.00;0.00;0.62;7.87;7.27;;;28.20;27.80;;;;;;2258854;61;20392;-62
2023/05/22 01:51:49;0.00;0.00;0.62;0.00;0.00;0.62;8.03;7.37;;;28.20;27.80;;;;;;2260377;61;20369;-61
2023/05/22 01:54:41;0.00;0.00;0.62;0.00;0.00;0.62;7.70;7.00;;;28.20;27.80;;;;;;2256202;61;20373;-61
2023/05/22 01:57:31;0.00;0.00;0.62;0.00;0.00;0.62;8.30;7.60;;;28.20;27.80;;;;;;2259867;61;20415;-61
2023/05/22 02:00:20;0.00;0.00;0.62;0.00;0.00;0.62;7.70;6.97;;;28.20;27.80;;;;;;2256546;61;20376;-61
2023/05/22 02:03:15;0.00;0.00;0.62;0.00;0.00;0.62;8.07;7.47;;;28.20;27.80;;;;;;2259237;61;20933;-61
2023/05/22 02:06:06;0.00;0.00;0.62;0.00;0.00;0.62;7.73;7.13;;;28.20;27.80;;;;;;2256685;61;20385;-62
2023/05/22 02:08:53;0.00;0.00;0.62;0.00;0.00;0.62;7.00;6.40;;;28.20;27.80;;;;;;2256739;61;20431;-61
2023/05/22 02:11:39;0.00;0.00;0.62;0.00;0.00;0.62;6.73;6.13;;;28.20;27.70;;;;;;2259364;61;20416;-62
2023/05/22 02:14:24;0.00;0.00;0.62;0.00;0.00;0.62;6.97;6.40;;;28.20;27.70;;;;;;2260135;61;20909;-62
2023/05/22 02:17:10;0.00;0.00;0.62;0.00;0.00;0.62;7.00;6.50;;;28.20;27.70;;;;;;2259476;61;20356;-63
2023/05/22 02:19:55;0.00;0.00;0.62;0.00;0.00;0.62;7.47;6.87;;;28.10;27.70;;;;;;2259690;61;20877;-61
2023/05/22 02:22:43;0.00;0.00;0.62;0.00;0.00;0.62;7.87;7.20;;;28.20;27.70;;;;;;2256556;61;20366;-62
2023/05/22 02:25:28;0.00;0.00;0.62;0.00;0.00;0.62;7.57;6.97;;;28.20;27.70;;;;;;2254592;61;20509;-62
2023/05/22 02:28:13;0.00;0.00;0.62;0.00;0.00;0.62;7.60;7.00;;;28.20;27.70;;;;;;2255961;61;20409;-61
2023/05/22 02:30:58;0.00;0.00;0.62;0.00;0.00;0.62;7.33;6.73;;;28.20;27.70;;;;;;2255388;61;20362;-61
2023/05/22 02:33:43;0.00;0.00;0.62;0.00;0.00;0.62;6.63;6.03;;;28.20;28.20;;;;;;2254775;61;20381;-63
2023/05/22 02:36:29;0.00;0.00;0.62;0.00;0.00;0.62;7.23;6.63;;;28.20;27.70;;;;;;2256140;61;20361;-63
2023/05/22 02:39:16;0.00;0.00;0.62;0.00;0.00;0.62;8.60;7.80;;;28.20;27.60;;;;;;2254696;61;20442;-62
2023/05/22 02:42:01;0.00;0.00;0.62;0.00;0.00;0.62;7.17;6.57;;;28.20;27.60;;;;;;2255385;61;20416;-61
2023/05/22 02:44:46;0.00;0.00;0.62;0.00;0.00;0.62;7.30;6.70;;;28.20;27.60;;;;;;2255104;61;20961;-60
2023/05/22 02:47:30;0.00;0.00;0.62;0.00;0.00;0.62;7.80;7.20;;;28.20;28.10;;;;;;2255032;61;20381;-61
2023/05/22 02:50:15;0.00;0.00;0.62;0.00;0.00;0.62;6.70;6.20;;;28.10;27.50;;;;;;2255567;61;20388;-63
2023/05/22 02:53:00;0.00;0.00;0.62;0.00;0.00;0.62;7.27;6.57;;;28.10;27.50;;;;;;2255813;61;20417;-61
2023/05/22 02:55:47;0.00;0.00;0.62;0.00;0.00;0.62;7.70;7.10;;;28.10;27.50;;;;;;2254968;61;20917;-61
2023/05/22 02:58:32;0.00;0.00;0.62;0.00;0.00;0.62;7.10;6.50;;;28.10;27.50;;;;;;2256409;61;20401;-62
2023/05/22 03:01:16;0.00;0.00;0.62;0.00;0.00;0.62;7.63;6.93;;;28.10;27.50;;;;;;2255132;61;20393;-62
2023/05/22 03:04:01;0.00;0.00;0.62;0.00;0.00;0.62;7.60;6.90;;;28.10;27.50;;;;;;2256284;61;20479;-63
2023/05/22 03:06:45;0.00;0.00;0.62;0.00;0.00;0.62;6.70;6.20;;;28.10;27.50;;;;;;2259757;61;20368;-61
2023/05/22 03:09:30;0.00;0.00;0.62;0.00;0.00;0.62;6.43;5.83;;;28.10;27.40;;;;;;2255596;61;20407;-63
2023/05/22 03:12:17;0.00;0.00;0.62;0.00;0.00;0.62;7.60;6.80;;;28.10;27.40;;;;;;2260255;61;20407;-61
2023/05/22 03:15:03;0.00;0.00;0.62;0.00;0.00;0.62;7.53;6.93;;;28.10;27.40;;;;;;2259476;61;20397;-60
2023/05/22 03:17:49;0.00;0.00;0.62;0.00;0.00;0.62;7.47;6.77;;;28.10;27.40;;;;;;2255905;61;20384;-63
2023/05/22 03:20:34;0.00;0.00;0.62;0.00;0.00;0.62;6.90;6.30;;;28.10;27.40;;;;;;2257444;61;20787;-61
2023/05/22 03:23:20;0.00;0.00;0.62;0.00;0.00;0.62;7.27;6.67;;;28.10;27.40;;;;;;2256916;61;20384;-61
2023/05/22 03:26:05;0.00;0.00;0.62;0.00;0.00;0.62;7.20;6.50;;;28.10;27.40;;;;;;2257230;61;20365;-61
2023/05/22 03:28:54;0.00;0.00;0.62;0.00;0.00;0.62;6.93;6.33;;;28.10;27.40;;;;;;2257169;61;20366;-62
2023/05/22 03:31:39;0.00;0.00;0.62;0.00;0.00;0.62;6.70;6.10;;;28.10;27.40;;;;;;2256720;61;20763;-61
2023/05/22 03:34:31;0.00;0.00;0.62;0.00;0.00;0.62;6.60;6.10;;;28.10;27.40;;;;;;2257369;61;20416;-61
2023/05/22 03:37:17;0.00;0.00;0.62;0.00;0.00;0.62;7.40;6.70;;;28.00;27.40;;;;;;2257408;61;20368;-61
2023/05/22 03:40:03;0.00;0.00;0.62;0.00;0.00;0.62;7.73;7.03;;;28.00;27.30;;;;;;2256188;61;20408;-61
2023/05/22 03:42:48;0.00;0.00;0.62;0.00;0.00;0.62;6.57;5.97;;;28.00;27.40;;;;;;2257661;61;20445;-60
2023/05/22 03:45:36;0.00;0.00;0.62;0.00;0.00;0.62;6.80;6.20;;;28.00;27.40;;;;;;2257048;61;20412;-60
2023/05/22 03:48:22;0.00;0.00;0.62;0.00;0.00;0.62;6.73;6.23;;;28.00;27.30;;;;;;2257219;61;20434;-62
2023/05/22 03:51:09;0.00;0.00;0.62;0.00;0.00;0.62;7.57;6.87;;;28.00;27.40;;;;;;2256730;61;20800;-62
2023/05/22 03:53:53;0.00;0.00;0.62;0.00;0.00;0.62;6.73;6.17;;;28.00;27.40;;;;;;2256238;61;20381;-63
2023/05/22 03:56:38;0.00;0.00;0.62;0.00;0.00;0.62;6.70;6.20;;;28.00;27.90;;;;;;2257542;61;20764;-62
2023/05/22 03:59:23;0.00;0.00;0.62;0.00;0.00;0.62;6.30;5.70;;;28.00;27.40;;;;;;2256904;61;20408;-62
2023/05/22 04:02:11;0.00;0.00;0.62;0.00;0.00;0.62;6.40;5.90;;;28.00;27.30;;;;;;2256756;61;20450;-63
2023/05/22 04:04:56;0.00;0.00;0.62;0.00;0.00;0.62;7.03;6.43;;;28.00;27.30;;;;;;2260415;61;20485;-64
2023/05/22 04:07:41;0.00;0.00;0.62;0.00;0.00;0.62;6.50;5.90;;;28.00;27.30;;;;;;2256933;61;20377;-62
2023/05/22 04:10:26;0.00;0.00;0.62;0.00;0.00;0.62;6.33;5.80;;;28.00;27.30;;;;;;2259724;61;20364;-63
2023/05/22 04:13:11;0.00;0.00;0.62;0.00;0.00;0.62;6.50;6.00;;;28.00;27.30;;;;;;2260502;61;20423;-62
2023/05/22 04:15:57;0.00;0.00;0.62;0.00;0.00;0.62;6.57;5.90;;;27.90;27.20;;;;;;2256109;61;20365;-62
2023/05/22 04:18:43;0.00;0.00;0.62;0.00;0.00;0.62;6.27;5.77;;;27.90;27.30;;;;;;2260596;61;20403;-61
2023/05/22 04:21:32;0.00;0.00;0.62;0.00;0.00;0.62;6.33;5.83;;;27.90;27.20;;;;;;2259828;61;20368;-62
2023/05/22 04:24:17;0.00;0.00;0.62;0.00;0.00;0.62;6.83;6.23;;;27.90;27.30;;;;;;2259568;61;20439;-67
2023/05/22 04:27:03;0.00;0.00;0.62;0.00;0.00;0.62;6.27;5.77;;;27.90;27.30;;;;;;2260813;61;20932;-64
2023/05/22 04:29:49;0.00;0.00;0.62;0.00;0.00;0.62;7.27;6.67;;;27.90;27.30;;;;;;2256302;61;20471;-63
2023/05/22 04:32:35;0.00;0.00;0.62;0.00;0.00;0.62;6.60;6.00;;;27.90;27.30;;;;;;2259945;61;20364;-61
2023/05/22 04:35:21;0.00;0.00;0.62;0.00;0.00;0.62;6.53;6.03;;;27.90;27.20;;;;;;2256745;61;20443;-63
2023/05/22 04:38:06;0.00;0.00;0.62;0.00;0.00;0.62;6.30;5.70;;;27.90;27.20;;;;;;2353978;53;20423;-66
2023/05/22 04:40:51;0.00;0.00;0.62;0.00;0.00;0.62;6.73;6.13;;;27.90;27.20;;;;;;2302599;53;20465;-63
2023/05/22 04:43:37;0.00;0.00;0.62;0.00;0.00;0.62;6.60;6.00;;;27.90;27.20;;;;;;2260075;61;20397;-64
2023/05/22 04:46:22;0.00;0.00;0.62;0.00;0.00;0.62;7.20;6.57;;;27.90;27.20;;;;;;2260559;61;20790;-59
2023/05/22 04:49:07;0.00;0.00;0.62;0.00;0.00;0.62;7.40;6.67;;;27.90;27.20;;;;;;2262267;61;20416;-60
2023/05/22 04:51:54;0.00;0.00;0.62;0.00;0.00;0.62;7.00;6.40;;;27.90;27.20;;;;;;2261091;61;20475;-64
2023/05/22 04:54:40;0.00;0.00;0.62;0.00;0.00;0.62;6.37;5.87;;;27.90;27.20;;;;;;2260190;61;20888;-68
2023/05/22 04:57:26;0.00;0.00;0.62;0.00;0.00;0.62;6.77;6.17;;;27.80;27.10;;;;;;2260372;61;20357;-61
2023/05/22 05:00:14;0.00;0.00;0.62;0.00;0.00;0.62;6.67;6.07;;;27.80;27.10;;;;;;2260032;61;20761;-63
2023/05/22 05:03:00;0.00;0.00;0.62;0.00;0.00;0.62;6.20;5.70;;;27.80;27.10;;;;;;2260077;61;20416;-63
2023/05/22 05:05:45;0.00;0.00;0.62;0.00;0.00;0.62;6.40;5.90;;;27.80;27.10;;;;;;2260091;61;20395;-63
2023/05/22 05:08:31;0.00;0.00;0.62;0.00;0.00;0.62;5.70;5.27;;;27.80;27.10;;;;;;2259126;61;20365;-61
2023/05/22 05:11:16;0.00;0.00;0.62;0.00;0.00;0.62;6.40;5.80;;;27.80;27.10;;;;;;2260311;61;20931;-63
2023/05/22 05:14:01;0.00;0.00;0.62;0.00;0.00;0.62;6.37;5.87;;;27.80;27.10;;;;;;2259016;61;20960;-63
2023/05/22 05:16:46;0.00;0.00;0.62;0.00;0.00;0.62;6.37;5.77;;;27.80;27.20;;;;;;2260033;61;20361;-60
2023/05/22 05:19:33;0.00;0.00;0.62;0.00;0.00;0.62;6.73;6.13;;;27.80;27.10;;;;;;2260311;61;20369;-62
2023/05/22 05:22:18;0.00;0.00;0.62;0.00;0.00;0.62;6.70;6.10;;;27.80;27.10;;;;;;2257195;61;20764;-63
2023/05/22 05:25:06;0.00;0.00;0.62;0.00;0.00;0.62;6.37;5.77;;;27.80;27.10;;;;;;2256095;61;20396;-61
2023/05/22 05:27:51;0.00;0.00;0.62;0.00;0.00;0.62;7.00;6.40;;;27.80;27.10;;;;;;2512021;53;20594;-61
2023/05/22 05:30:37;0.00;0.00;0.62;0.00;0.00;0.62;6.57;5.97;;;27.80;27.10;;;;;;2255054;61;20365;-61
2023/05/22 05:33:34;0.00;0.00;0.62;0.00;0.00;0.62;6.13;5.53;;;27.70;27.00;;;;;;2257272;61;20423;-60
2023/05/22 05:36:27;0.00;0.00;0.62;0.00;0.00;0.62;6.80;6.20;;;27.80;27.10;;;;;;2256862;61;20365;-60
2023/05/22 05:39:12;0.00;0.00;0.62;0.00;0.00;0.62;7.20;6.50;;;27.70;27.10;;;;;;2258566;61;20372;-60
2023/05/22 05:41:59;0.00;0.00;0.62;0.00;0.00;0.62;6.40;5.87;;;27.70;27.00;;;;;;2256352;61;20369;-60
2023/05/22 05:44:44;0.00;0.00;0.62;0.00;0.00;0.62;7.43;6.70;;;27.70;27.10;;;;;;2252074;61;20952;-68
2023/05/22 05:47:30;0.00;0.00;0.62;0.00;0.00;0.62;6.40;5.90;;;27.70;27.10;;;;;;2254860;61;20412;-64
2023/05/22 05:50:15;0.00;0.00;0.62;0.00;0.00;0.62;6.80;6.20;;;27.70;27.10;;;;;;2256704;61;20365;-61
2023/05/22 05:53:00;0.00;0.00;0.62;0.00;0.00;0.62;7.23;6.63;;;27.70;27.20;;;;;;2258439;61;20377;-61
2023/05/22 05:55:45;0.00;0.00;0.62;0.00;0.00;0.62;7.63;6.93;;;27.70;27.10;;;;;;2260024;61;20361;-63
2023/05/22 05:58:32;0.00;0.00;0.62;0.00;0.00;0.62;6.33;5.83;;;27.70;27.10;;;;;;2259505;61;20380;-65
2023/05/22 06:01:38;0.00;0.00;0.62;0.00;0.00;0.62;6.57;5.87;;;27.70;27.20;;;;;;2258205;61;20608;-66
2023/05/22 06:04:28;0.00;0.00;0.62;0.00;0.00;0.62;6.20;5.70;;;27.70;27.10;;;;;;2258421;61;20393;-62
2023/05/22 06:07:12;0.00;0.00;0.62;0.00;0.00;0.62;6.70;6.10;;;27.70;27.10;;;;;;2257538;61;20373;-63
2023/05/22 06:10:04;0.00;0.00;0.62;0.00;0.00;0.62;6.60;6.00;;;27.70;27.10;;;;;;2262205;61;20404;-62
2023/05/22 06:12:55;0.00;0.00;0.62;0.00;0.00;0.62;6.73;6.17;;;27.70;27.20;;;;;;2262647;61;20450;-62
2023/05/22 06:15:41;0.00;0.00;0.62;0.00;0.00;0.62;6.43;5.93;;;27.70;27.20;;;;;;2492965;53;20362;-62
2023/05/22 06:18:26;0.00;0.00;0.62;0.00;0.00;0.62;6.50;5.90;;;27.70;27.20;;;;;;2259194;61;20370;-63
2023/05/22 06:21:11;0.00;0.00;0.62;0.00;0.00;0.62;7.23;6.17;;;27.70;27.20;;;;;;2255498;61;20377;-62
2023/05/22 06:23:56;0.00;0.00;0.62;0.00;0.00;0.62;7.20;6.50;;;27.70;27.20;;;;;;2260941;61;20393;-62
2023/05/22 06:26:42;0.00;0.00;0.62;0.00;0.00;0.62;7.83;5.93;;;27.70;27.10;;;;;;2496028;53;20410;-63
2023/05/22 06:29:26;0.00;0.00;0.62;0.00;0.00;0.62;6.90;6.00;;;27.70;27.70;;;;;;2261569;61;20376;-64
2023/05/22 06:32:14;0.00;0.00;0.62;0.00;0.00;0.62;7.47;6.40;;;27.70;27.10;;;;;;2262532;61;20384;-63
2023/05/22 06:35:02;0.00;0.00;0.62;0.00;0.00;0.62;6.90;6.30;;;27.70;27.20;;;;;;2261953;61;20474;-62
2023/05/22 06:37:47;0.00;0.00;0.62;0.00;0.00;0.62;6.60;6.10;;;27.70;27.10;;;;;;2258655;61;20361;-63
2023/05/22 06:40:32;0.00;0.00;0.62;0.00;0.00;0.62;7.87;6.57;;;27.60;27.10;;;;;;2262630;61;20373;-62
2023/05/22 06:43:31;0.00;0.00;0.62;0.00;0.00;0.62;6.40;5.90;;;27.60;27.00;;;;;;2259179;61;20407;-62
2023/05/22 06:46:25;0.00;0.00;0.62;0.00;0.00;0.62;7.50;6.30;;;27.60;27.10;;;;;;2262338;61;20405;-63
2023/05/22 06:49:16;0.00;0.00;0.62;0.00;0.00;0.62;7.23;6.57;;;27.60;27.10;;;;;;2262424;61;20372;-63
2023/05/22 06:52:03;0.00;0.00;0.62;0.00;0.00;0.62;6.90;6.30;;;27.60;27.10;;;;;;2261583;61;20770;-62
2023/05/22 06:54:48;0.00;0.00;0.62;0.00;0.00;0.62;7.40;6.60;;;27.60;27.10;;;;;;2260582;61;20399;-62
2023/05/22 06:57:33;0.00;0.00;0.62;0.00;0.00;0.62;6.97;6.37;;;27.60;27.20;;;;;;2263863;61;20364;-61
2023/05/22 07:00:21;0.00;0.00;0.62;0.00;0.00;0.62;6.10;5.50;;;27.60;27.20;;;;;;2261869;61;20361;-63
2023/05/22 07:03:20;0.00;0.00;0.62;0.00;0.00;0.62;5.77;5.30;;;27.50;27.10;;;;;;2263346;61;20427;-63
2023/05/22 07:06:24;0.00;0.00;0.62;0.00;0.00;0.62;8.50;5.53;;;27.50;27.10;;;;;;2262770;61;20432;-63
2023/05/22 07:09:10;0.00;0.00;0.62;0.00;0.00;0.62;6.67;6.07;;;27.50;27.10;;;;;;2260558;61;20785;-63
2023/05/22 07:11:56;0.00;0.00;0.62;0.00;0.00;0.62;6.00;5.50;;;27.50;27.10;;;;;;2260855;61;20360;-63
2023/05/22 07:14:41;0.00;0.00;0.62;0.00;0.00;0.62;7.60;6.90;;;27.50;27.20;;;;;;2261782;61;20388;-63
2023/05/22 07:17:26;0.00;0.00;0.62;0.00;0.00;0.62;6.90;6.17;;;27.50;27.20;;;;;;2261007;61;20876;-64
2023/05/22 07:20:14;0.00;0.00;0.62;0.00;0.00;0.62;6.70;6.10;;;27.50;27.20;;;;;;2260220;61;20457;-63
2023/05/22 07:23:06;0.00;0.00;0.62;0.00;0.00;0.62;5.93;5.43;;;27.50;27.20;;;;;;2259982;61;20399;-63
2023/05/22 07:25:53;0.00;0.00;0.62;0.00;0.00;0.62;6.40;5.77;;;27.50;27.20;;;;;;2261021;61;20377;-63
2023/05/22 07:28:41;0.00;0.00;0.62;0.00;0.00;0.62;7.10;5.93;;;27.60;27.30;;;;;;2260047;61;20360;-63
2023/05/22 07:31:32;0.00;0.00;0.62;0.00;0.00;0.62;6.50;5.90;;;27.50;27.30;;;;;;2260740;61;20407;-63
2023/05/22 07:34:18;0.00;0.00;0.62;0.00;0.00;0.62;7.40;5.37;;;27.50;27.30;;;;;;2260583;61;20377;-63
2023/05/22 07:37:07;0.00;0.00;0.62;0.00;0.00;0.62;5.50;5.00;;;27.50;27.30;;;;;;2259759;61;20368;-63
2023/05/22 07:39:54;0.00;0.00;0.62;0.00;0.00;0.62;6.13;5.63;;;27.50;27.30;;;;;;2260720;61;20753;-62
2023/05/22 07:42:39;0.00;0.00;0.62;0.00;0.00;0.62;6.37;5.87;;;27.50;27.90;;;;;;2263884;61;20920;-63
2023/05/22 07:45:25;0.00;0.00;0.62;0.00;0.00;0.62;5.93;5.33;;;27.50;27.40;;;;;;2259514;61;20420;-63
2023/05/22 07:48:10;0.00;0.00;0.62;0.00;0.00;0.62;6.37;5.87;;;27.50;27.40;;;;;;2260462;61;20375;-61
2023/05/22 07:50:56;0.00;0.00;0.62;0.00;0.00;0.62;5.70;5.20;;;27.50;27.40;;;;;;2261987;61;20449;-63
2023/05/22 07:53:42;0.00;0.00;0.62;0.00;0.00;0.62;7.10;6.40;;;27.50;27.40;;;;;;2263036;61;20376;-63
2023/05/22 07:56:29;0.00;0.00;0.62;0.00;0.00;0.62;6.70;6.13;;;27.60;27.60;;;;;;2260489;61;20376;-63
2023/05/22 07:59:17;0.00;0.00;0.62;0.00;0.00;0.62;5.43;4.93;;;27.50;27.50;;;;;;2259111;61;20397;-62
2023/05/22 08:02:02;0.00;0.00;0.62;0.00;0.00;0.62;6.53;5.93;;;27.50;27.50;;;;;;2263544;61;20893;-63
2023/05/22 08:04:47;0.00;0.00;0.62;0.00;0.00;0.62;7.50;6.80;;;27.60;27.60;;;;;;2263684;61;20443;-63
2023/05/22 08:07:35;0.00;0.00;0.62;0.00;0.00;0.62;7.00;6.30;;;27.60;27.60;;;;;;2263501;61;20459;-63
2023/05/22 08:10:19;0.00;0.00;0.62;0.00;0.00;0.62;7.03;6.33;;;27.60;27.70;;;;;;2263639;61;20357;-62
2023/05/22 08:13:05;0.00;0.00;0.62;0.00;0.00;0.62;6.83;6.23;;;27.60;27.70;;;;;;2262943;61;20894;-63
2023/05/22 08:15:50;0.00;0.00;0.62;0.00;0.00;0.62;7.00;6.43;;;27.60;27.70;;;;;;2622867;45;20361;-63
2023/05/22 08:18:35;0.00;0.00;0.62;0.00;0.00;0.62;6.20;5.70;;;27.60;27.70;;;;;;2263639;61;20369;-63
2023/05/22 08:21:20;0.00;0.00;0.62;0.00;0.00;0.62;6.53;5.97;;;27.60;27.80;;;;;;2259575;61;20372;-65
2023/05/22 08:24:05;0.00;0.00;0.62;0.00;0.00;0.62;7.03;6.40;;;27.60;27.80;;;;;;2263336;61;20392;-69
2023/05/22 08:26:50;0.00;0.00;0.62;0.00;0.00;0.62;7.53;6.70;;;27.60;27.80;;;;;;2495842;53;20361;-64
2023/05/22 08:29:36;0.00;0.00;0.62;0.00;0.00;0.62;8.70;7.07;;;27.60;27.90;;;;;;2258306;61;20445;-63
2023/05/22 08:32:20;0.00;0.00;0.62;0.00;0.00;0.62;6.33;5.73;;;27.60;27.90;;;;;;2259503;61;20435;-64
2023/05/22 08:35:06;0.00;0.00;0.62;0.00;0.00;0.62;6.83;6.33;;;27.60;27.90;;;;;;2258318;61;20381;-63
2023/05/22 08:37:51;0.00;0.00;0.62;0.00;0.00;0.62;6.47;5.87;;;27.60;28.00;;;;;;2259015;61;20441;-63
2023/05/22 08:40:38;0.00;0.00;0.62;0.00;0.00;0.62;7.63;6.93;;;27.70;28.10;;;;;;2258650;61;20366;-63
2023/05/22 08:43:23;0.00;0.00;0.62;0.00;0.00;0.62;6.93;6.23;;;27.60;28.00;;;;;;2258208;61;20386;-62
2023/05/22 08:46:10;0.00;0.00;0.62;0.00;0.00;0.62;6.57;5.93;;;27.70;28.10;;;;;;2259212;61;20362;-63
2023/05/22 08:48:56;0.00;0.00;0.62;0.00;0.00;0.62;7.07;6.47;;;27.70;28.00;;;;;;2259024;61;20366;-63
2023/05/22 08:51:46;0.00;0.00;0.62;0.00;0.00;0.62;7.33;6.67;;;27.70;28.10;;;;;;2258416;61;20805;-63
2023/05/22 08:54:35;0.00;0.00;0.62;0.00;0.00;0.62;6.90;6.30;;;27.70;28.10;;;;;;2258939;61;20380;-63
2023/05/22 08:57:21;0.00;0.00;0.62;0.00;0.00;0.62;6.60;6.00;;;27.70;28.10;;;;;;2258465;61;20405;-62
2023/05/22 09:00:08;0.00;0.00;0.62;0.00;0.00;0.62;7.33;6.63;;;27.70;28.10;;;;;;2258333;61;20385;-64
2023/05/22 09:02:54;0.00;0.00;0.62;0.00;0.00;0.62;7.13;6.43;;;27.70;28.60;;;;;;2259735;61;20361;-61
2023/05/22 09:05:40;0.00;0.00;0.62;0.00;0.00;0.62;7.30;6.63;;;27.70;28.10;;;;;;2259026;61;20369;-61
2023/05/22 09:08:25;0.00;0.00;0.62;0.00;0.00;0.62;7.33;6.67;;;27.70;28.10;;;;;;2259433;61;20360;-62
2023/05/22 09:11:10;0.00;0.00;0.62;0.00;0.00;0.62;6.83;6.33;;;27.80;28.20;;;;;;2259252;61;20365;-61
2023/05/22 09:14:06;0.00;0.00;0.62;0.00;0.00;0.62;7.33;6.33;;;27.80;28.10;;;;;;2260219;61;20920;-62
2023/05/22 09:16:53;0.00;0.00;0.62;0.00;0.00;0.62;6.87;6.27;;;27.80;28.20;;;;;;2263880;61;20436;-62
2023/05/22 09:19:43;0.00;0.00;0.62;0.00;0.00;0.62;6.40;5.83;;;27.80;28.20;;;;;;2262141;61;20499;-62
2023/05/22 09:22:37;0.00;0.00;0.62;0.00;0.00;0.62;6.33;5.73;;;27.80;28.20;;;;;;2263609;61;20453;-62
2023/05/22 09:25:21;0.00;0.00;0.62;0.00;0.00;0.62;8.40;6.37;;;27.80;28.20;;;;;;2263355;61;20428;-62
2023/05/22 09:28:06;0.00;0.00;0.62;0.00;0.00;0.62;7.13;6.53;;;27.80;28.10;;;;;;2262162;61;20439;-63
2023/05/22 09:30:52;0.00;0.00;0.62;0.00;0.00;0.62;6.57;5.97;;;27.80;28.20;;;;;;2262706;61;20751;-62
2023/05/22 09:33:37;0.00;0.00;0.62;0.00;0.00;0.62;6.30;5.80;;;27.80;28.20;;;;;;2262755;61;20377;-62
2023/05/22 09:36:30;0.00;0.00;0.62;0.00;0.00;0.62;6.70;6.10;;;27.80;28.30;;;;;;2262827;61;20364;-62
2023/05/22 09:39:14;0.00;0.00;0.62;0.00;0.00;0.62;7.40;6.70;;;27.80;28.30;;;;;;2262920;61;20950;-62
2023/05/22 09:42:00;0.00;0.00;0.62;0.00;0.00;0.62;6.37;5.80;;;27.90;28.40;;;;;;2261809;61;20361;-62
2023/05/22 09:44:48;0.00;0.00;0.62;0.00;0.00;0.62;7.70;7.00;;;27.90;28.40;;;;;;2262921;61;20397;-62
2023/05/22 09:47:33;0.00;0.00;0.62;0.00;0.00;0.62;6.77;6.17;;;27.90;28.40;;;;;;2263198;61;20396;-62
2023/05/22 09:50:18;0.00;0.00;0.62;0.00;0.00;0.62;7.70;7.00;;;27.90;28.40;;;;;;2258414;61;20462;-65
2023/05/22 09:53:04;0.00;0.00;0.62;0.00;0.00;0.62;7.10;6.50;;;27.90;28.40;;;;;;2262950;61;20361;-62
2023/05/22 09:55:50;0.00;0.00;0.62;0.00;0.00;0.62;6.80;6.20;;;27.90;28.50;;;;;;2263021;61;20894;-62
2023/05/22 09:58:40;0.00;0.00;0.62;0.00;0.00;0.62;6.90;6.30;;;27.90;28.50;;;;;;2262768;61;20372;-62
2023/05/22 10:01:25;0.00;0.00;0.62;0.00;0.00;0.62;6.83;6.33;;;27.90;28.50;;;;;;2262628;61;20357;-62
2023/05/22 10:04:13;0.00;0.00;0.62;0.00;0.00;0.62;7.37;6.77;;;27.90;28.40;;;;;;2260455;61;20385;-63
2023/05/22 10:07:02;0.00;0.00;0.62;0.00;0.00;0.62;7.07;6.47;;;28.00;28.50;;;;;;2261801;61;20437;-66
2023/05/22 10:09:55;0.00;0.00;0.62;0.00;0.00;0.62;6.73;6.23;;;28.00;28.50;;;;;;2259732;61;20361;-66
2023/05/22 10:12:43;0.00;0.00;0.62;0.00;0.00;0.62;6.93;6.33;;;28.00;28.60;;;;;;2256694;61;20407;-61
2023/05/22 10:15:29;0.00;0.00;0.62;0.00;0.00;0.62;7.60;7.00;;;28.00;28.70;;;;;;2261925;61;20473;-61
2023/05/22 10:18:15;0.00;0.00;0.62;0.00;0.00;0.62;7.10;6.43;;;28.00;28.70;;;;;;2262058;61;20368;-64
2023/05/22 10:21:00;0.00;0.00;0.62;0.00;0.00;0.62;7.17;6.47;;;28.10;28.80;;;;;;2261152;61;20356;-65
2023/05/22 10:23:45;0.00;0.00;0.62;0.00;0.00;0.62;6.80;6.20;;;28.00;28.70;;;;;;2258301;61;20392;-63
2023/05/22 10:26:32;0.00;0.00;0.62;0.00;0.00;0.62;7.07;6.37;;;28.10;28.80;;;;;;2259117;61;20393;-63
2023/05/22 10:29:21;0.00;0.00;0.62;0.00;0.00;0.62;6.30;5.70;;;28.10;28.90;;;;;;2260668;61;20392;-67
2023/05/22 10:32:20;0.00;0.00;0.62;0.00;0.00;0.62;7.27;6.30;;;28.10;28.90;;;;;;2257615;61;20780;-65
2023/05/22 10:35:18;0.00;0.00;0.62;0.00;0.00;0.62;6.73;6.13;;;28.10;28.90;;;;;;2256531;61;20376;-64
2023/05/22 10:38:24;0.00;0.00;0.62;0.00;0.00;0.62;7.33;6.73;;;28.10;29.40;;;;;;2260875;61;20372;-67
2023/05/22 10:41:10;0.00;0.00;0.62;0.00;0.00;0.62;6.50;6.00;;;28.20;29.00;;;;;;2259795;61;20371;-66
2023/05/22 10:43:57;0.00;0.00;0.62;0.00;0.00;0.62;7.70;6.90;;;28.20;29.00;;;;;;2260275;61;20420;-66
2023/05/22 10:46:47;0.00;0.00;0.62;0.00;0.00;0.62;7.30;6.63;;;28.20;29.00;;;;;;2260826;61;20380;-66
2023/05/22 10:49:32;0.00;0.00;0.62;0.00;0.00;0.62;7.47;6.77;;;28.20;29.00;;;;;;2259392;61;20399;-65
2023/05/22 10:52:20;0.00;0.00;0.62;0.00;0.00;0.62;7.30;6.70;;;28.20;29.10;;;;;;2261001;61;20364;-67
2023/05/22 10:55:07;0.00;0.00;0.62;0.00;0.00;0.62;7.17;6.57;;;28.20;29.10;;;;;;2259893;61;20469;-65
2023/05/22 10:57:55;0.00;0.00;0.62;0.00;0.00;0.62;7.17;6.57;;;28.30;29.10;;;;;;2260122;61;20369;-65
2023/05/22 11:00:42;0.00;0.00;0.62;0.00;0.00;0.62;7.03;6.43;;;28.30;29.10;;;;;;2260453;61;20412;-65